UATG/GUW METAR and TAF weather

Enter ICAO airport designator
Station Type Date Time Source
UATG METAR 2020/05/29 20:00 UTC NOAA

UATG 292000Z 08005MPS CAVOK 27/03 Q1008 R14/CLRD70 NOSIG RMK QFE758/1011


Station Type Date Time Source
UATG Decoded METAR 2020/05/29 20:00 UTC NOAA

Station name not available
May 29, 2020 - 04:00 PM EDT / 2020.05.29 2000 UTC
Wind: from the E (080 degrees) at 11 MPH (10 KT):0
Visibility: greater than 7 mile(s):0
Temperature: 80 F (27 C)
Dew Point: 37 F (3 C)
Relative Humidity: 21%
Pressure (altimeter): 29.77 in. Hg (1008 hPa)
ob: UATG 292000Z 08005MPS CAVOK 27/03 Q1008 R14/CLRD70 NOSIG RMK QFE758/1011
cycle: 20

Station Type Date Time Source
UATG TAF 2020/05/29 18:21 UTC NOAA

TAF UATG 291701Z 2918/3018 07006MPS CAVOK TX35/3012Z TN22/3001Z
BECMG 3004/3005 13010MPS
BECMG 3008/3009 22009MPS

Example: see airport list